createdAt,value
2023-03-12T00:01:45.339Z,94.93
2023-03-12T00:07:04.533Z,95.26
2023-03-12T00:12:24.053Z,95.63
2023-03-12T00:17:43.525Z,95.94
2023-03-12T00:23:02.939Z,96.2
2023-03-12T00:28:22.669Z,96.47
2023-03-12T00:33:41.735Z,96.79
2023-03-12T00:39:01.164Z,97.19
2023-03-12T00:44:20.599Z,97.36
2023-03-12T00:49:40.335Z,97.5
2023-03-12T00:54:59.315Z,97.43
2023-03-12T01:00:18.259Z,97.32
2023-03-12T01:05:37.427Z,97.3
2023-03-12T01:10:56.761Z,97.41
2023-03-12T01:16:16.064Z,97.57
2023-03-12T01:21:35.109Z,97.57
2023-03-12T01:26:54.228Z,97.75
2023-03-12T01:32:14.129Z,98
2023-03-12T01:37:33.892Z,98.11
2023-03-12T01:42:53.448Z,98.1
2023-03-12T01:48:12.981Z,98.22
2023-03-12T01:53:32.616Z,98.26
2023-03-12T01:58:51.809Z,98.32
2023-03-12T02:04:11.607Z,98.34
2023-03-12T02:09:31.104Z,98.34
2023-03-12T02:14:49.942Z,98.37
2023-03-12T02:20:08.938Z,98.4
2023-03-12T02:25:28.339Z,98.55
2023-03-12T02:30:47.836Z,98.47
2023-03-12T02:36:07.249Z,98.42
2023-03-12T02:41:26.586Z,98.4
2023-03-12T02:46:46.177Z,98.34
2023-03-12T02:52:05.994Z,98.31
2023-03-12T02:57:25.569Z,98.22
2023-03-12T03:02:44.740Z,98.14
2023-03-12T03:08:04.186Z,98.16
2023-03-12T03:13:24.046Z,98.15
2023-03-12T03:18:43.019Z,98.12
2023-03-12T03:24:02.020Z,98.04
2023-03-12T03:29:21.668Z,97.99
2023-03-12T03:34:49.773Z,97.86
2023-03-12T03:40:00.024Z,97.78
2023-03-12T03:45:19.750Z,97.72
2023-03-12T03:50:39.063Z,97.62
2023-03-12T03:55:58.833Z,97.62
2023-03-12T04:01:18.202Z,97.62
2023-03-12T04:06:38.008Z,97.57
2023-03-12T04:11:57.738Z,97.58
2023-03-12T04:17:16.753Z,97.54
2023-03-12T04:22:35.968Z,97.43
2023-03-12T04:27:54.843Z,97.27
2023-03-12T04:33:13.734Z,97.13
2023-03-12T04:38:32.630Z,97.1
2023-03-12T04:43:51.589Z,97.14
2023-03-12T04:49:11.445Z,97.13
2023-03-12T04:54:30.438Z,96.98
2023-03-12T04:59:50.198Z,96.94
2023-03-12T05:05:09.745Z,96.73
2023-03-12T05:10:29.556Z,96.39
2023-03-12T05:15:49.349Z,96.17
2023-03-12T05:21:08.396Z,96.03
2023-03-12T05:26:27.885Z,96.09
2023-03-12T05:31:47.497Z,96.02
2023-03-12T05:37:06.419Z,96.08
2023-03-12T05:42:26.202Z,96.09
2023-03-12T05:47:45.137Z,96.12
2023-03-12T05:53:04.497Z,96.33
2023-03-12T05:58:23.476Z,95.43
2023-03-12T06:03:43.389Z,94.84
2023-03-12T06:09:03.021Z,94.89
2023-03-12T06:14:22.392Z,94.89
2023-03-12T06:19:41.712Z,94.84
2023-03-12T06:25:00.655Z,95.03
2023-03-12T06:30:19.850Z,94.93
2023-03-12T06:35:39.141Z,94.72
2023-03-12T06:40:58.135Z,94.2
2023-03-12T06:46:17.280Z,94.06
2023-03-12T06:51:36.687Z,93.84
2023-03-12T06:56:56.405Z,93.67
2023-03-12T07:02:16.187Z,93.56
2023-03-12T07:07:35.802Z,93.14
2023-03-12T07:12:55.036Z,92.98
2023-03-12T07:18:14.360Z,92.49
2023-03-12T07:23:33.405Z,91.89
2023-03-12T07:28:52.383Z,91.2
2023-03-12T07:34:11.590Z,90.68
2023-03-12T07:39:31.023Z,90.58
2023-03-12T07:44:50.587Z,89.95
2023-03-12T07:50:09.812Z,87.28
2023-03-12T07:55:29.055Z,84.42
2023-03-12T08:00:49.024Z,82.99
2023-03-12T08:06:08.504Z,82.12
2023-03-12T08:11:27.441Z,81.93
2023-03-12T08:16:46.797Z,82.35
2023-03-12T08:22:05.843Z,85.38
2023-03-12T08:27:24.878Z,83.33
2023-03-12T08:32:43.941Z,82.95
2023-03-12T08:38:03.624Z,82.66
2023-03-12T08:43:23.153Z,82.07
2023-03-12T08:48:42.244Z,82.55
2023-03-12T08:54:01.956Z,82.18
2023-03-12T08:59:20.752Z,82.45
2023-03-12T09:04:40.253Z,84.9
2023-03-12T09:09:59.984Z,84.39
2023-03-12T09:15:19.382Z,83.47
2023-03-12T09:20:38.764Z,84.34
2023-03-12T09:25:58.271Z,82.47
2023-03-12T09:31:17.856Z,81.37
2023-03-12T09:36:37.359Z,82.52
2023-03-12T09:41:56.372Z,80.03
2023-03-12T09:47:15.866Z,80.23
2023-03-12T09:52:35.277Z,79.94
2023-03-12T09:57:54.115Z,81.06
2023-03-12T10:03:13.813Z,81.14
2023-03-12T10:08:32.977Z,81.01
2023-03-12T10:13:52.719Z,82.44
2023-03-12T10:19:12.114Z,81.29
2023-03-12T10:24:30.859Z,82.75
2023-03-12T10:29:49.593Z,82.85
2023-03-12T10:35:08.413Z,83.38
2023-03-12T10:40:27.964Z,83.57
2023-03-12T10:45:47.110Z,84.57
2023-03-12T10:51:06.636Z,85.53
2023-03-12T10:56:26.196Z,86.33
2023-03-12T11:01:45.952Z,86.66
2023-03-12T11:07:05.110Z,86.47
2023-03-12T11:12:24.239Z,87.06
2023-03-12T11:17:43.119Z,87.72
2023-03-12T11:23:01.972Z,88.52
2023-03-12T11:28:21.796Z,89.46
2023-03-12T11:33:41.082Z,90.01
2023-03-12T11:38:59.934Z,90.29
2023-03-12T11:44:19.573Z,90.93
2023-03-12T11:49:38.443Z,91.23
2023-03-12T11:54:58.143Z,90.66
2023-03-12T12:00:17.837Z,89.96
2023-03-12T12:05:37.352Z,90.41
2023-03-12T12:10:57.050Z,89.55
2023-03-12T12:16:16.520Z,90.04
2023-03-12T12:21:36.158Z,90.53
2023-03-12T12:26:55.381Z,90.49
2023-03-12T12:32:15.129Z,90.2
2023-03-12T12:37:34.528Z,90.81
2023-03-12T12:42:53.677Z,91.54
2023-03-12T12:48:13.324Z,91.81
2023-03-12T12:53:33.078Z,91.58
2023-03-12T12:58:53.263Z,91.16
2023-03-12T13:04:12.697Z,90.53
2023-03-12T13:09:32.072Z,90.87
2023-03-12T13:14:51.137Z,90.75
2023-03-12T13:20:10.076Z,90.91
2023-03-12T13:25:28.890Z,91.55
2023-03-12T13:30:48.246Z,91.25
2023-03-12T13:36:07.878Z,90.73
2023-03-12T13:41:27.346Z,89.69
2023-03-12T13:46:46.756Z,89.94
2023-03-12T13:52:05.653Z,89.7
2023-03-12T13:57:24.672Z,89.32
2023-03-12T14:02:44.348Z,89.08
2023-03-12T14:08:03.889Z,88.6
2023-03-12T14:13:23.342Z,87.7
2023-03-12T14:19:08.759Z,86.16
2023-03-12T14:24:27.874Z,84.69
2023-03-12T14:29:46.742Z,83.27
2023-03-12T14:35:06.094Z,83.3
2023-03-12T14:40:24.786Z,82.29
2023-03-12T14:45:44.448Z,81.67
2023-03-12T14:51:03.433Z,79.67
2023-03-12T14:56:23.017Z,80.19
2023-03-12T15:01:42.082Z,81.43
2023-03-12T15:07:01.431Z,81.31
2023-03-12T15:12:20.862Z,81.15
2023-03-12T15:17:40.321Z,80.26
2023-03-12T15:22:59.528Z,79.51
2023-03-12T15:28:18.673Z,79.76
2023-03-12T15:33:37.480Z,78.94
2023-03-12T15:38:56.810Z,79.39
2023-03-12T15:44:15.741Z,80.25
2023-03-12T15:49:35.234Z,80.69
2023-03-12T15:54:54.907Z,80.11
2023-03-12T16:00:14.020Z,80.49
2023-03-12T16:05:32.904Z,80.01
2023-03-12T16:10:52.134Z,80.71
2023-03-12T16:16:11.425Z,80.78
2023-03-12T16:21:30.177Z,80.15
2023-03-12T16:26:49.664Z,80.26
2023-03-12T16:32:09.177Z,80.08
2023-03-12T16:37:27.817Z,80.03
2023-03-12T16:42:47.452Z,79.89
2023-03-12T16:48:06.734Z,79.73
2023-03-12T16:53:25.589Z,79.85
2023-03-12T16:58:44.391Z,79.87
2023-03-12T17:04:04.210Z,80.03
2023-03-12T17:09:22.958Z,79.94
2023-03-12T17:14:41.879Z,80.06
2023-03-12T17:20:01.038Z,80.4
2023-03-12T17:25:20.258Z,80.36
2023-03-12T17:30:39.649Z,80.54
2023-03-12T17:35:58.909Z,80.54
2023-03-12T17:41:25.829Z,80.28
2023-03-12T17:46:39.081Z,79.71
2023-03-12T17:51:56.600Z,79.44
2023-03-12T17:57:15.756Z,79.3
2023-03-12T18:02:35.207Z,78.68
2023-03-12T18:07:53.980Z,77.83
2023-03-12T18:13:13.488Z,77.65
2023-03-12T18:18:33.184Z,77.42
2023-03-12T18:23:53.320Z,77.21
2023-03-12T18:29:11.878Z,77.19
2023-03-12T18:34:31.064Z,76.62
2023-03-12T18:39:50.405Z,76.26
2023-03-12T18:45:10.112Z,75.74
2023-03-12T18:50:28.997Z,75.44
2023-03-12T18:55:47.707Z,74.79
2023-03-12T19:01:06.667Z,74.67
2023-03-12T19:06:25.966Z,74.69
2023-03-12T19:11:45.689Z,74.46
2023-03-12T19:17:04.879Z,74.49
2023-03-12T19:22:24.359Z,74.48
2023-03-12T19:27:44.002Z,74.81
2023-03-12T19:33:03.668Z,75.08
2023-03-12T19:38:22.962Z,75.04
2023-03-12T19:43:50.397Z,75.01
2023-03-12T19:49:02.104Z,74.75
2023-03-12T19:54:21.003Z,75.01
2023-03-12T19:59:40.848Z,75.37
2023-03-12T20:05:00.405Z,75.93
2023-03-12T20:10:20.117Z,76.15
2023-03-12T20:15:39.202Z,76.36
2023-03-12T20:20:58.025Z,76.62
2023-03-12T20:26:17.713Z,76.55
2023-03-12T20:31:37.373Z,75.94
2023-03-12T20:36:56.975Z,75.76
2023-03-12T20:42:15.780Z,75.97
2023-03-12T20:47:34.875Z,76.06
2023-03-12T20:52:54.107Z,75.96
2023-03-12T20:58:13.285Z,75.83
2023-03-12T21:03:32.816Z,75.79
2023-03-12T21:08:52.136Z,75.76
2023-03-12T21:14:11.700Z,76.04
2023-03-12T21:19:31.070Z,75.96
2023-03-12T21:24:49.985Z,76.33
2023-03-12T21:30:09.391Z,76.51
2023-03-12T21:35:28.775Z,76.67
2023-03-12T21:40:48.085Z,76.76
2023-03-12T21:46:07.151Z,76.9
2023-03-12T21:51:26.202Z,76.89
2023-03-12T21:56:44.944Z,76.76
2023-03-12T22:02:04.680Z,76.54
2023-03-12T22:07:23.632Z,76.32
2023-03-12T22:12:42.518Z,76.1
2023-03-12T22:18:01.846Z,75.71
2023-03-12T22:23:20.666Z,75.44
2023-03-12T22:28:39.516Z,75.21
2023-03-12T22:33:59.092Z,74.96
2023-03-12T22:39:18.291Z,75.07
2023-03-12T22:44:37.990Z,75.08
2023-03-12T22:49:57.049Z,74.79
2023-03-12T22:55:16.287Z,74.83
2023-03-12T23:00:35.368Z,74.79
2023-03-12T23:05:54.506Z,74.74
2023-03-12T23:11:14.237Z,74.61
2023-03-12T23:16:33.747Z,74.53
2023-03-12T23:21:53.166Z,74.29
2023-03-12T23:27:12.125Z,73.73
2023-03-12T23:32:31.294Z,74.76
2023-03-12T23:37:50.362Z,75.54
2023-03-12T23:43:09.751Z,75.8
2023-03-12T23:48:28.942Z,75.47
2023-03-12T23:53:48.059Z,75.08
2023-03-12T23:59:07.404Z,74.71
